sensor_id;sensor_type;location;lat;lon;timestamp;temperature;humidity
28614;DHT22;15806;53.548;9.964;2022-12-18T00:01:22;-3.50;99.90
28614;DHT22;15806;53.548;9.964;2022-12-18T00:03:03;-3.60;99.90
28614;DHT22;15806;53.548;9.964;2022-12-18T00:04:43;-3.60;99.90
28614;DHT22;15806;53.548;9.964;2022-12-18T00:06:26;-3.60;99.90
28614;DHT22;15806;53.548;9.964;2022-12-18T00:08:06;-3.60;99.90
28614;DHT22;15806;53.548;9.964;2022-12-18T00:09:47;-3.50;99.90
28614;DHT22;15806;53.548;9.964;2022-12-18T00:11:30;-3.60;99.90
28614;DHT22;15806;53.548;9.964;2022-12-18T00:13:11;-3.60;99.90
28614;DHT22;15806;53.548;9.964;2022-12-18T00:14:51;-3.50;99.90
28614;DHT22;15806;53.548;9.964;2022-12-18T00:16:32;-3.50;99.90
28614;DHT22;15806;53.548;9.964;2022-12-18T00:18:13;-3.60;99.90
28614;DHT22;15806;53.548;9.964;2022-12-18T00:19:53;-3.60;99.90
28614;DHT22;15806;53.548;9.964;2022-12-18T00:21:34;-3.60;99.90
28614;DHT22;15806;53.548;9.964;2022-12-18T00:23:14;-3.70;99.90
28614;DHT22;15806;53.548;9.964;2022-12-18T00:24:55;-3.70;99.90
28614;DHT22;15806;53.548;9.964;2022-12-18T00:26:37;-3.70;99.90
28614;DHT22;15806;53.548;9.964;2022-12-18T00:28:18;-3.70;99.90
28614;DHT22;15806;53.548;9.964;2022-12-18T00:29:58;-3.70;99.90
28614;DHT22;15806;53.548;9.964;2022-12-18T00:31:39;-3.70;99.90
28614;DHT22;15806;53.548;9.964;2022-12-18T00:33:20;-3.70;99.90
28614;DHT22;15806;53.548;9.964;2022-12-18T00:35:00;-3.70;99.90
28614;DHT22;15806;53.548;9.964;2022-12-18T00:36:41;-3.60;99.90
28614;DHT22;15806;53.548;9.964;2022-12-18T00:38:22;-3.70;99.90
28614;DHT22;15806;53.548;9.964;2022-12-18T00:40:03;-3.70;99.90
28614;DHT22;15806;53.548;9.964;2022-12-18T00:41:43;-3.80;99.90
28614;DHT22;15806;53.548;9.964;2022-12-18T00:43:24;-3.80;99.90
28614;DHT22;15806;53.548;9.964;2022-12-18T00:45:05;-3.90;99.90
28614;DHT22;15806;53.548;9.964;2022-12-18T00:46:46;-3.90;99.90
28614;DHT22;15806;53.548;9.964;2022-12-18T00:48:27;-3.90;99.90
28614;DHT22;15806;53.548;9.964;2022-12-18T00:50:08;-3.90;99.90
28614;DHT22;15806;53.548;9.964;2022-12-18T00:51:49;-3.90;99.90
28614;DHT22;15806;53.548;9.964;2022-12-18T00:53:29;-3.90;99.90
28614;DHT22;15806;53.548;9.964;2022-12-18T00:55:10;-3.90;99.90
28614;DHT22;15806;53.548;9.964;2022-12-18T00:56:51;-3.90;99.90
28614;DHT22;15806;53.548;9.964;2022-12-18T00:58:32;-3.90;99.90
28614;DHT22;15806;53.548;9.964;2022-12-18T01:00:14;-3.90;99.90
28614;DHT22;15806;53.548;9.964;2022-12-18T01:01:55;-4.00;99.90
28614;DHT22;15806;53.548;9.964;2022-12-18T01:03:35;-4.00;99.90
28614;DHT22;15806;53.548;9.964;2022-12-18T01:05:16;-3.90;99.90
28614;DHT22;15806;53.548;9.964;2022-12-18T01:06:57;-3.90;99.90
28614;DHT22;15806;53.548;9.964;2022-12-18T01:08:38;-3.80;99.90
28614;DHT22;15806;53.548;9.964;2022-12-18T01:10:19;-3.80;99.90
28614;DHT22;15806;53.548;9.964;2022-12-18T01:11:59;-3.90;99.90
28614;DHT22;15806;53.548;9.964;2022-12-18T01:13:40;-4.00;99.90
28614;DHT22;15806;53.548;9.964;2022-12-18T01:15:20;-4.00;99.90
28614;DHT22;15806;53.548;9.964;2022-12-18T01:17:01;-4.00;99.90
28614;DHT22;15806;53.548;9.964;2022-12-18T01:18:42;-4.00;99.90
28614;DHT22;15806;53.548;9.964;2022-12-18T01:20:22;-4.00;99.90
28614;DHT22;15806;53.548;9.964;2022-12-18T01:22:02;-3.90;99.90
28614;DHT22;15806;53.548;9.964;2022-12-18T01:23:46;-3.90;99.90
28614;DHT22;15806;53.548;9.964;2022-12-18T01:25:30;-3.90;99.90
28614;DHT22;15806;53.548;9.964;2022-12-18T01:27:11;-3.90;99.90
28614;DHT22;15806;53.548;9.964;2022-12-18T01:28:53;-4.00;99.90
28614;DHT22;15806;53.548;9.964;2022-12-18T01:30:34;-4.00;99.90
28614;DHT22;15806;53.548;9.964;2022-12-18T01:32:14;-4.00;99.90
28614;DHT22;15806;53.548;9.964;2022-12-18T01:33:55;-4.00;99.90
28614;DHT22;15806;53.548;9.964;2022-12-18T01:35:43;-4.00;99.90
28614;DHT22;15806;53.548;9.964;2022-12-18T01:37:23;-4.00;99.90
28614;DHT22;15806;53.548;9.964;2022-12-18T01:39:07;-4.00;99.90
28614;DHT22;15806;53.548;9.964;2022-12-18T01:40:48;-4.00;99.90
28614;DHT22;15806;53.548;9.964;2022-12-18T01:42:28;-3.90;99.90
28614;DHT22;15806;53.548;9.964;2022-12-18T01:46:27;-4.10;99.90
28614;DHT22;15806;53.548;9.964;2022-12-18T01:48:08;-4.10;99.90
28614;DHT22;15806;53.548;9.964;2022-12-18T01:49:49;-4.10;99.90
28614;DHT22;15806;53.548;9.964;2022-12-18T01:51:30;-4.10;99.90
28614;DHT22;15806;53.548;9.964;2022-12-18T01:53:19;-4.10;99.90
28614;DHT22;15806;53.548;9.964;2022-12-18T01:55:02;-4.20;99.90
28614;DHT22;15806;53.548;9.964;2022-12-18T01:56:43;-4.10;99.90
28614;DHT22;15806;53.548;9.964;2022-12-18T01:58:39;-4.10;99.90
28614;DHT22;15806;53.548;9.964;2022-12-18T02:00:22;-4.10;99.90
28614;DHT22;15806;53.548;9.964;2022-12-18T02:02:03;-4.20;99.90
28614;DHT22;15806;53.548;9.964;2022-12-18T02:03:44;-4.20;99.90
28614;DHT22;15806;53.548;9.964;2022-12-18T02:05:44;-4.20;99.90
28614;DHT22;15806;53.548;9.964;2022-12-18T02:07:29;-4.30;99.90
28614;DHT22;15806;53.548;9.964;2022-12-18T02:09:28;-4.30;99.90
28614;DHT22;15806;53.548;9.964;2022-12-18T02:13:19;-4.30;99.90
28614;DHT22;15806;53.548;9.964;2022-12-18T02:15:12;-4.20;99.90
28614;DHT22;15806;53.548;9.964;2022-12-18T02:18:41;-4.30;99.90
28614;DHT22;15806;53.548;9.964;2022-12-18T02:20:36;-4.30;99.90
28614;DHT22;15806;53.548;9.964;2022-12-18T02:26:24;-4.40;99.90
28614;DHT22;15806;53.548;9.964;2022-12-18T02:28:11;-4.40;99.90
28614;DHT22;15806;53.548;9.964;2022-12-18T02:29:55;-4.40;99.90
28614;DHT22;15806;53.548;9.964;2022-12-18T02:31:42;-4.50;99.90
28614;DHT22;15806;53.548;9.964;2022-12-18T02:33:27;-4.40;99.90
28614;DHT22;15806;53.548;9.964;2022-12-18T02:35:14;-4.40;99.90
28614;DHT22;15806;53.548;9.964;2022-12-18T02:36:55;-4.50;99.90
28614;DHT22;15806;53.548;9.964;2022-12-18T02:38:38;-4.50;99.90
28614;DHT22;15806;53.548;9.964;2022-12-18T02:40:21;-4.40;99.90
28614;DHT22;15806;53.548;9.964;2022-12-18T02:42:02;-4.40;99.90
28614;DHT22;15806;53.548;9.964;2022-12-18T02:43:53;-4.40;99.90
28614;DHT22;15806;53.548;9.964;2022-12-18T02:45:35;-4.40;99.90
28614;DHT22;15806;53.548;9.964;2022-12-18T02:47:18;-4.30;99.90
28614;DHT22;15806;53.548;9.964;2022-12-18T02:51:26;-4.30;99.90
28614;DHT22;15806;53.548;9.964;2022-12-18T02:59:30;-4.30;99.90
28614;DHT22;15806;53.548;9.964;2022-12-18T03:01:27;-4.30;99.90
28614;DHT22;15806;53.548;9.964;2022-12-18T03:03:26;-4.30;99.90
28614;DHT22;15806;53.548;9.964;2022-12-18T03:06:55;-4.30;99.90
28614;DHT22;15806;53.548;9.964;2022-12-18T03:08:41;-4.30;99.90
28614;DHT22;15806;53.548;9.964;2022-12-18T03:10:29;-4.20;99.90
28614;DHT22;15806;53.548;9.964;2022-12-18T03:14:01;-4.20;99.90
28614;DHT22;15806;53.548;9.964;2022-12-18T03:15:50;-4.20;99.90
28614;DHT22;15806;53.548;9.964;2022-12-18T03:17:33;-4.30;99.90
28614;DHT22;15806;53.548;9.964;2022-12-18T03:19:17;-4.30;99.90
28614;DHT22;15806;53.548;9.964;2022-12-18T03:21:00;-4.30;99.90
28614;DHT22;15806;53.548;9.964;2022-12-18T03:22:45;-4.30;99.90
28614;DHT22;15806;53.548;9.964;2022-12-18T03:24:29;-4.40;99.90
28614;DHT22;15806;53.548;9.964;2022-12-18T03:26:14;-4.40;99.90
28614;DHT22;15806;53.548;9.964;2022-12-18T03:27:58;-4.40;99.90
28614;DHT22;15806;53.548;9.964;2022-12-18T03:29:48;-4.40;99.90
28614;DHT22;15806;53.548;9.964;2022-12-18T03:31:31;-4.40;99.90
28614;DHT22;15806;53.548;9.964;2022-12-18T03:33:24;-4.40;99.90
28614;DHT22;15806;53.548;9.964;2022-12-18T03:35:06;-4.50;99.90
28614;DHT22;15806;53.548;9.964;2022-12-18T03:36:49;-4.40;99.90
28614;DHT22;15806;53.548;9.964;2022-12-18T03:38:30;-4.50;99.90
28614;DHT22;15806;53.548;9.964;2022-12-18T03:40:10;-4.40;99.90
28614;DHT22;15806;53.548;9.964;2022-12-18T03:42:04;-4.40;99.90
28614;DHT22;15806;53.548;9.964;2022-12-18T03:45:54;-4.50;99.90
28614;DHT22;15806;53.548;9.964;2022-12-18T03:50:02;-4.60;99.90
28614;DHT22;15806;53.548;9.964;2022-12-18T03:55:48;-4.60;99.90
28614;DHT22;15806;53.548;9.964;2022-12-18T03:57:31;-4.70;99.90
28614;DHT22;15806;53.548;9.964;2022-12-18T03:59:14;-4.60;99.90
28614;DHT22;15806;53.548;9.964;2022-12-18T04:00:56;-4.60;99.90
28614;DHT22;15806;53.548;9.964;2022-12-18T04:02:42;-4.70;99.90
28614;DHT22;15806;53.548;9.964;2022-12-18T04:04:24;-4.80;99.90
28614;DHT22;15806;53.548;9.964;2022-12-18T04:06:06;-4.90;99.90
28614;DHT22;15806;53.548;9.964;2022-12-18T04:07:49;-4.90;99.90
28614;DHT22;15806;53.548;9.964;2022-12-18T04:09:30;-4.90;99.90
28614;DHT22;15806;53.548;9.964;2022-12-18T04:11:12;-4.90;99.90
28614;DHT22;15806;53.548;9.964;2022-12-18T04:12:55;-4.90;99.90
28614;DHT22;15806;53.548;9.964;2022-12-18T04:14:36;-4.90;99.90
28614;DHT22;15806;53.548;9.964;2022-12-18T04:16:17;-4.90;99.90
28614;DHT22;15806;53.548;9.964;2022-12-18T04:17:57;-4.90;99.90
28614;DHT22;15806;53.548;9.964;2022-12-18T04:19:38;-4.80;99.90
28614;DHT22;15806;53.548;9.964;2022-12-18T04:21:19;-4.90;99.90
28614;DHT22;15806;53.548;9.964;2022-12-18T04:22:59;-4.90;99.90
28614;DHT22;15806;53.548;9.964;2022-12-18T04:24:40;-4.90;99.90
28614;DHT22;15806;53.548;9.964;2022-12-18T04:26:21;-5.00;99.90
28614;DHT22;15806;53.548;9.964;2022-12-18T04:28:01;-5.00;99.90
28614;DHT22;15806;53.548;9.964;2022-12-18T04:29:42;-5.00;99.90
28614;DHT22;15806;53.548;9.964;2022-12-18T04:31:22;-5.00;99.90
28614;DHT22;15806;53.548;9.964;2022-12-18T04:33:03;-4.80;99.90
28614;DHT22;15806;53.548;9.964;2022-12-18T04:34:43;-4.90;99.90
28614;DHT22;15806;53.548;9.964;2022-12-18T04:36:27;-4.90;99.90
28614;DHT22;15806;53.548;9.964;2022-12-18T04:38:08;-5.00;99.90
28614;DHT22;15806;53.548;9.964;2022-12-18T04:39:49;-5.00;99.90
28614;DHT22;15806;53.548;9.964;2022-12-18T04:41:29;-4.90;99.90
28614;DHT22;15806;53.548;9.964;2022-12-18T04:43:10;-4.90;99.90
28614;DHT22;15806;53.548;9.964;2022-12-18T04:44:50;-4.90;99.90
28614;DHT22;15806;53.548;9.964;2022-12-18T04:46:31;-5.00;99.90
28614;DHT22;15806;53.548;9.964;2022-12-18T04:48:11;-4.90;99.90
28614;DHT22;15806;53.548;9.964;2022-12-18T04:49:52;-4.90;99.90
28614;DHT22;15806;53.548;9.964;2022-12-18T04:51:32;-4.80;99.90
28614;DHT22;15806;53.548;9.964;2022-12-18T04:53:13;-4.80;99.90
28614;DHT22;15806;53.548;9.964;2022-12-18T04:54:53;-4.80;99.90
28614;DHT22;15806;53.548;9.964;2022-12-18T04:56:34;-4.70;99.90
28614;DHT22;15806;53.548;9.964;2022-12-18T04:58:14;-4.60;99.90
28614;DHT22;15806;53.548;9.964;2022-12-18T04:59:55;-4.60;99.90
28614;DHT22;15806;53.548;9.964;2022-12-18T05:01:35;-4.80;99.90
28614;DHT22;15806;53.548;9.964;2022-12-18T05:03:16;-4.80;99.90
28614;DHT22;15806;53.548;9.964;2022-12-18T05:04:56;-4.60;99.90
28614;DHT22;15806;53.548;9.964;2022-12-18T05:06:37;-4.50;99.90
28614;DHT22;15806;53.548;9.964;2022-12-18T05:08:21;-4.70;99.90
28614;DHT22;15806;53.548;9.964;2022-12-18T05:10:01;-4.70;99.90
28614;DHT22;15806;53.548;9.964;2022-12-18T05:11:42;-4.60;99.90
28614;DHT22;15806;53.548;9.964;2022-12-18T05:13:22;-4.60;99.90
28614;DHT22;15806;53.548;9.964;2022-12-18T05:15:03;-4.70;99.90
28614;DHT22;15806;53.548;9.964;2022-12-18T05:16:44;-4.70;99.90
28614;DHT22;15806;53.548;9.964;2022-12-18T05:18:25;-4.60;99.90
28614;DHT22;15806;53.548;9.964;2022-12-18T05:20:06;-4.60;99.90
28614;DHT22;15806;53.548;9.964;2022-12-18T05:21:46;-4.70;99.90
28614;DHT22;15806;53.548;9.964;2022-12-18T05:23:27;-4.70;99.90
28614;DHT22;15806;53.548;9.964;2022-12-18T05:25:08;-4.90;99.90
28614;DHT22;15806;53.548;9.964;2022-12-18T05:26:49;-4.80;99.90
28614;DHT22;15806;53.548;9.964;2022-12-18T05:28:30;-4.90;99.90
28614;DHT22;15806;53.548;9.964;2022-12-18T05:30:13;-4.90;99.90
28614;DHT22;15806;53.548;9.964;2022-12-18T05:31:53;-4.80;99.90
28614;DHT22;15806;53.548;9.964;2022-12-18T05:33:35;-4.80;99.90
28614;DHT22;15806;53.548;9.964;2022-12-18T05:35:15;-4.90;99.90
28614;DHT22;15806;53.548;9.964;2022-12-18T05:36:56;-4.80;99.90
28614;DHT22;15806;53.548;9.964;2022-12-18T05:38:38;-4.80;99.90
28614;DHT22;15806;53.548;9.964;2022-12-18T05:40:18;-4.90;99.90
28614;DHT22;15806;53.548;9.964;2022-12-18T05:41:59;-4.80;99.90
28614;DHT22;15806;53.548;9.964;2022-12-18T05:43:40;-4.80;99.90
28614;DHT22;15806;53.548;9.964;2022-12-18T05:45:20;-4.60;99.90
28614;DHT22;15806;53.548;9.964;2022-12-18T05:47:01;-4.70;99.90
28614;DHT22;15806;53.548;9.964;2022-12-18T05:48:42;-4.90;99.90
28614;DHT22;15806;53.548;9.964;2022-12-18T05:50:22;-5.00;99.90
28614;DHT22;15806;53.548;9.964;2022-12-18T05:52:03;-5.00;99.90
28614;DHT22;15806;53.548;9.964;2022-12-18T05:53:44;-5.10;99.90
28614;DHT22;15806;53.548;9.964;2022-12-18T05:55:25;-5.10;99.90
28614;DHT22;15806;53.548;9.964;2022-12-18T05:57:05;-5.00;99.90
28614;DHT22;15806;53.548;9.964;2022-12-18T05:58:47;-5.00;99.90
28614;DHT22;15806;53.548;9.964;2022-12-18T06:00:27;-5.00;99.90
28614;DHT22;15806;53.548;9.964;2022-12-18T06:02:08;-5.00;99.90
28614;DHT22;15806;53.548;9.964;2022-12-18T06:03:49;-5.10;99.90
28614;DHT22;15806;53.548;9.964;2022-12-18T06:05:36;-5.00;99.90
28614;DHT22;15806;53.548;9.964;2022-12-18T06:07:17;-4.90;99.90
28614;DHT22;15806;53.548;9.964;2022-12-18T06:08:58;-4.90;99.90
28614;DHT22;15806;53.548;9.964;2022-12-18T06:10:39;-4.90;99.90
28614;DHT22;15806;53.548;9.964;2022-12-18T06:12:20;-4.80;99.90
28614;DHT22;15806;53.548;9.964;2022-12-18T06:14:01;-4.70;99.90
28614;DHT22;15806;53.548;9.964;2022-12-18T06:15:42;-4.70;99.90
28614;DHT22;15806;53.548;9.964;2022-12-18T06:17:22;-4.80;99.90
28614;DHT22;15806;53.548;9.964;2022-12-18T06:19:05;-4.70;99.90
28614;DHT22;15806;53.548;9.964;2022-12-18T06:20:57;-4.70;99.90
28614;DHT22;15806;53.548;9.964;2022-12-18T06:22:38;-4.90;99.90
28614;DHT22;15806;53.548;9.964;2022-12-18T06:24:18;-5.00;99.90
28614;DHT22;15806;53.548;9.964;2022-12-18T06:26:06;-5.00;99.90
28614;DHT22;15806;53.548;9.964;2022-12-18T06:27:48;-4.90;99.90
28614;DHT22;15806;53.548;9.964;2022-12-18T06:29:28;-5.00;99.90
28614;DHT22;15806;53.548;9.964;2022-12-18T06:31:09;-5.10;99.90
28614;DHT22;15806;53.548;9.964;2022-12-18T06:32:50;-5.10;99.90
28614;DHT22;15806;53.548;9.964;2022-12-18T06:34:31;-4.90;99.90
28614;DHT22;15806;53.548;9.964;2022-12-18T06:36:13;-4.80;99.90
28614;DHT22;15806;53.548;9.964;2022-12-18T06:37:53;-4.90;99.90
28614;DHT22;15806;53.548;9.964;2022-12-18T06:39:34;-4.90;99.90
28614;DHT22;15806;53.548;9.964;2022-12-18T06:41:17;-4.80;99.90
28614;DHT22;15806;53.548;9.964;2022-12-18T06:42:58;-4.90;99.90
28614;DHT22;15806;53.548;9.964;2022-12-18T06:44:38;-4.90;99.90
28614;DHT22;15806;53.548;9.964;2022-12-18T06:46:19;-4.80;99.90
28614;DHT22;15806;53.548;9.964;2022-12-18T06:48:00;-4.80;99.90
28614;DHT22;15806;53.548;9.964;2022-12-18T06:49:40;-4.80;99.90
28614;DHT22;15806;53.548;9.964;2022-12-18T06:51:23;-4.90;99.90
28614;DHT22;15806;53.548;9.964;2022-12-18T06:53:04;-4.90;99.90
28614;DHT22;15806;53.548;9.964;2022-12-18T06:54:44;-5.00;99.90
28614;DHT22;15806;53.548;9.964;2022-12-18T06:56:25;-4.80;99.90
28614;DHT22;15806;53.548;9.964;2022-12-18T06:58:05;-4.80;99.90
28614;DHT22;15806;53.548;9.964;2022-12-18T06:59:46;-5.00;99.90
28614;DHT22;15806;53.548;9.964;2022-12-18T07:01:26;-5.00;99.90
28614;DHT22;15806;53.548;9.964;2022-12-18T07:03:07;-4.90;99.90
28614;DHT22;15806;53.548;9.964;2022-12-18T07:04:51;-5.00;99.90
28614;DHT22;15806;53.548;9.964;2022-12-18T07:06:31;-5.00;99.90
28614;DHT22;15806;53.548;9.964;2022-12-18T07:08:12;-5.20;99.90
28614;DHT22;15806;53.548;9.964;2022-12-18T07:09:52;-5.20;99.90
28614;DHT22;15806;53.548;9.964;2022-12-18T07:11:33;-5.10;99.90
28614;DHT22;15806;53.548;9.964;2022-12-18T07:13:14;-5.30;99.90
28614;DHT22;15806;53.548;9.964;2022-12-18T07:14:54;-5.20;99.90
28614;DHT22;15806;53.548;9.964;2022-12-18T07:16:35;-5.20;99.90
28614;DHT22;15806;53.548;9.964;2022-12-18T07:18:15;-5.20;99.90
28614;DHT22;15806;53.548;9.964;2022-12-18T07:19:56;-5.10;99.90
28614;DHT22;15806;53.548;9.964;2022-12-18T07:21:36;-5.10;99.90
28614;DHT22;15806;53.548;9.964;2022-12-18T07:23:17;-5.10;99.90
28614;DHT22;15806;53.548;9.964;2022-12-18T07:24:57;-5.00;99.90
28614;DHT22;15806;53.548;9.964;2022-12-18T07:26:38;-5.10;99.90
28614;DHT22;15806;53.548;9.964;2022-12-18T07:28:18;-5.10;99.90
28614;DHT22;15806;53.548;9.964;2022-12-18T07:29:59;-5.20;99.90
28614;DHT22;15806;53.548;9.964;2022-12-18T07:31:39;-5.30;99.90
28614;DHT22;15806;53.548;9.964;2022-12-18T07:33:20;-5.40;99.90
28614;DHT22;15806;53.548;9.964;2022-12-18T07:35:00;-5.40;99.90
28614;DHT22;15806;53.548;9.964;2022-12-18T07:36:41;-5.40;99.90
28614;DHT22;15806;53.548;9.964;2022-12-18T07:38:27;-5.40;99.90
28614;DHT22;15806;53.548;9.964;2022-12-18T07:40:08;-5.20;99.90
28614;DHT22;15806;53.548;9.964;2022-12-18T07:41:51;-5.20;99.90
28614;DHT22;15806;53.548;9.964;2022-12-18T07:43:32;-5.20;99.90
28614;DHT22;15806;53.548;9.964;2022-12-18T07:45:13;-5.10;99.90
28614;DHT22;15806;53.548;9.964;2022-12-18T07:46:53;-5.10;99.90
28614;DHT22;15806;53.548;9.964;2022-12-18T07:48:34;-4.90;99.90
28614;DHT22;15806;53.548;9.964;2022-12-18T07:50:15;-5.00;99.90
28614;DHT22;15806;53.548;9.964;2022-12-18T07:51:58;-4.90;99.90
28614;DHT22;15806;53.548;9.964;2022-12-18T07:53:39;-4.90;99.90
28614;DHT22;15806;53.548;9.964;2022-12-18T07:55:20;-4.90;99.90
28614;DHT22;15806;53.548;9.964;2022-12-18T07:57:00;-4.90;99.90
28614;DHT22;15806;53.548;9.964;2022-12-18T07:58:41;-4.80;99.90
28614;DHT22;15806;53.548;9.964;2022-12-18T08:00:22;-4.70;99.90
28614;DHT22;15806;53.548;9.964;2022-12-18T08:02:02;-4.70;99.90
28614;DHT22;15806;53.548;9.964;2022-12-18T08:03:43;-4.70;99.90
28614;DHT22;15806;53.548;9.964;2022-12-18T08:05:24;-4.60;99.90
28614;DHT22;15806;53.548;9.964;2022-12-18T08:07:04;-4.50;99.90
28614;DHT22;15806;53.548;9.964;2022-12-18T08:08:47;-4.60;99.90
28614;DHT22;15806;53.548;9.964;2022-12-18T08:10:28;-4.70;99.90
28614;DHT22;15806;53.548;9.964;2022-12-18T08:12:08;-4.60;99.90
28614;DHT22;15806;53.548;9.964;2022-12-18T08:13:49;-4.60;99.90
28614;DHT22;15806;53.548;9.964;2022-12-18T08:15:30;-4.70;99.90
28614;DHT22;15806;53.548;9.964;2022-12-18T08:17:10;-4.80;99.90
28614;DHT22;15806;53.548;9.964;2022-12-18T08:18:52;-4.80;99.90
28614;DHT22;15806;53.548;9.964;2022-12-18T08:20:36;-4.80;99.90
28614;DHT22;15806;53.548;9.964;2022-12-18T08:22:16;-4.70;99.90
28614;DHT22;15806;53.548;9.964;2022-12-18T08:24:00;-4.70;99.90
28614;DHT22;15806;53.548;9.964;2022-12-18T08:25:41;-4.70;99.90
28614;DHT22;15806;53.548;9.964;2022-12-18T08:27:22;-4.70;99.90
28614;DHT22;15806;53.548;9.964;2022-12-18T08:29:02;-4.80;99.90
28614;DHT22;15806;53.548;9.964;2022-12-18T08:30:43;-4.70;99.90
28614;DHT22;15806;53.548;9.964;2022-12-18T08:32:24;-4.70;99.90
28614;DHT22;15806;53.548;9.964;2022-12-18T08:34:05;-4.80;99.90
28614;DHT22;15806;53.548;9.964;2022-12-18T08:35:46;-4.70;99.90
28614;DHT22;15806;53.548;9.964;2022-12-18T08:37:26;-4.60;99.90
28614;DHT22;15806;53.548;9.964;2022-12-18T08:39:07;-4.60;99.90
28614;DHT22;15806;53.548;9.964;2022-12-18T08:40:47;-4.60;99.90
28614;DHT22;15806;53.548;9.964;2022-12-18T08:42:28;-4.60;99.90
28614;DHT22;15806;53.548;9.964;2022-12-18T08:44:08;-4.50;99.90
28614;DHT22;15806;53.548;9.964;2022-12-18T08:45:50;-4.50;99.90
28614;DHT22;15806;53.548;9.964;2022-12-18T08:47:30;-4.50;99.90
28614;DHT22;15806;53.548;9.964;2022-12-18T08:49:11;-4.60;99.90
28614;DHT22;15806;53.548;9.964;2022-12-18T08:50:56;-4.60;99.90
28614;DHT22;15806;53.548;9.964;2022-12-18T08:52:37;-4.50;99.90
28614;DHT22;15806;53.548;9.964;2022-12-18T08:54:17;-4.50;99.90
28614;DHT22;15806;53.548;9.964;2022-12-18T08:55:58;-4.40;99.90
28614;DHT22;15806;53.548;9.964;2022-12-18T08:57:38;-4.40;99.90
28614;DHT22;15806;53.548;9.964;2022-12-18T08:59:19;-4.40;99.90
28614;DHT22;15806;53.548;9.964;2022-12-18T09:01:01;-4.30;99.90
28614;DHT22;15806;53.548;9.964;2022-12-18T09:02:42;-4.30;99.90
28614;DHT22;15806;53.548;9.964;2022-12-18T09:04:22;-4.30;99.90
28614;DHT22;15806;53.548;9.964;2022-12-18T09:06:03;-4.30;99.90
28614;DHT22;15806;53.548;9.964;2022-12-18T09:07:44;-4.40;99.90
28614;DHT22;15806;53.548;9.964;2022-12-18T09:09:25;-4.30;99.90
28614;DHT22;15806;53.548;9.964;2022-12-18T09:11:12;-4.30;99.90
28614;DHT22;15806;53.548;9.964;2022-12-18T09:12:52;-4.20;99.90
28614;DHT22;15806;53.548;9.964;2022-12-18T09:14:33;-4.20;99.90
28614;DHT22;15806;53.548;9.964;2022-12-18T09:16:14;-4.10;99.90
28614;DHT22;15806;53.548;9.964;2022-12-18T09:17:54;-4.00;99.90
28614;DHT22;15806;53.548;9.964;2022-12-18T09:19:35;-4.10;99.90
28614;DHT22;15806;53.548;9.964;2022-12-18T09:21:18;-4.20;99.90
28614;DHT22;15806;53.548;9.964;2022-12-18T09:22:59;-4.20;99.90
28614;DHT22;15806;53.548;9.964;2022-12-18T09:24:40;-4.10;99.90
28614;DHT22;15806;53.548;9.964;2022-12-18T09:26:21;-4.10;99.90
28614;DHT22;15806;53.548;9.964;2022-12-18T09:28:04;-4.00;99.90
28614;DHT22;15806;53.548;9.964;2022-12-18T09:29:44;-4.00;99.90
28614;DHT22;15806;53.548;9.964;2022-12-18T09:31:25;-3.90;99.90
28614;DHT22;15806;53.548;9.964;2022-12-18T09:33:06;-3.90;99.90
28614;DHT22;15806;53.548;9.964;2022-12-18T09:34:46;-4.00;99.90
28614;DHT22;15806;53.548;9.964;2022-12-18T09:36:27;-4.00;99.90
28614;DHT22;15806;53.548;9.964;2022-12-18T09:38:10;-3.90;99.90
28614;DHT22;15806;53.548;9.964;2022-12-18T09:39:51;-3.80;99.90
28614;DHT22;15806;53.548;9.964;2022-12-18T09:43:45;-3.80;99.90
28614;DHT22;15806;53.548;9.964;2022-12-18T09:45:27;-3.80;99.90
28614;DHT22;15806;53.548;9.964;2022-12-18T09:47:16;-3.70;99.90
28614;DHT22;15806;53.548;9.964;2022-12-18T09:48:59;-3.50;99.90
28614;DHT22;15806;53.548;9.964;2022-12-18T09:50:40;-3.50;99.90
28614;DHT22;15806;53.548;9.964;2022-12-18T09:52:26;-3.40;99.90
28614;DHT22;15806;53.548;9.964;2022-12-18T09:54:11;-3.40;99.90
28614;DHT22;15806;53.548;9.964;2022-12-18T09:55:52;-3.30;99.90
28614;DHT22;15806;53.548;9.964;2022-12-18T09:57:33;-3.30;99.90
28614;DHT22;15806;53.548;9.964;2022-12-18T09:59:21;-3.40;99.90
28614;DHT22;15806;53.548;9.964;2022-12-18T10:01:07;-3.40;99.90
28614;DHT22;15806;53.548;9.964;2022-12-18T10:02:51;-3.50;99.90
28614;DHT22;15806;53.548;9.964;2022-12-18T10:04:31;-3.50;99.90
28614;DHT22;15806;53.548;9.964;2022-12-18T10:06:21;-3.50;99.90
28614;DHT22;15806;53.548;9.964;2022-12-18T10:08:10;-3.50;99.90
28614;DHT22;15806;53.548;9.964;2022-12-18T10:09:59;-3.30;99.90
28614;DHT22;15806;53.548;9.964;2022-12-18T10:16:46;-3.00;99.90
28614;DHT22;15806;53.548;9.964;2022-12-18T10:20:33;-2.90;99.90
28614;DHT22;15806;53.548;9.964;2022-12-18T10:24:04;-2.80;99.90
28614;DHT22;15806;53.548;9.964;2022-12-18T10:25:53;-2.90;99.90
28614;DHT22;15806;53.548;9.964;2022-12-18T10:27:35;-2.80;99.90
28614;DHT22;15806;53.548;9.964;2022-12-18T10:29:16;-2.80;99.90
28614;DHT22;15806;53.548;9.964;2022-12-18T10:30:56;-2.80;99.90
28614;DHT22;15806;53.548;9.964;2022-12-18T10:32:38;-2.70;99.90
28614;DHT22;15806;53.548;9.964;2022-12-18T10:34:18;-2.60;99.90
28614;DHT22;15806;53.548;9.964;2022-12-18T10:35:58;-2.60;99.90
28614;DHT22;15806;53.548;9.964;2022-12-18T10:37:39;-2.70;99.90
28614;DHT22;15806;53.548;9.964;2022-12-18T10:39:38;-2.60;99.90
28614;DHT22;15806;53.548;9.964;2022-12-18T10:43:10;-2.70;99.90
28614;DHT22;15806;53.548;9.964;2022-12-18T10:45:00;-2.70;99.90
28614;DHT22;15806;53.548;9.964;2022-12-18T10:46:41;-2.70;99.90
28614;DHT22;15806;53.548;9.964;2022-12-18T10:48:21;-2.60;99.90
28614;DHT22;15806;53.548;9.964;2022-12-18T10:50:02;-2.50;99.90
28614;DHT22;15806;53.548;9.964;2022-12-18T10:51:43;-2.50;99.90
28614;DHT22;15806;53.548;9.964;2022-12-18T10:53:24;-2.50;99.90
28614;DHT22;15806;53.548;9.964;2022-12-18T10:55:06;-2.50;99.90
28614;DHT22;15806;53.548;9.964;2022-12-18T10:57:13;-2.60;99.90
28614;DHT22;15806;53.548;9.964;2022-12-18T10:59:00;-2.50;99.90
28614;DHT22;15806;53.548;9.964;2022-12-18T11:00:41;-2.60;99.90
28614;DHT22;15806;53.548;9.964;2022-12-18T11:02:26;-2.60;99.90
28614;DHT22;15806;53.548;9.964;2022-12-18T11:04:15;-2.50;99.90
28614;DHT22;15806;53.548;9.964;2022-12-18T11:06:03;-2.50;99.90
28614;DHT22;15806;53.548;9.964;2022-12-18T11:07:53;-2.50;99.90
28614;DHT22;15806;53.548;9.964;2022-12-18T11:09:34;-2.40;99.90
28614;DHT22;15806;53.548;9.964;2022-12-18T11:11:19;-2.20;99.90
28614;DHT22;15806;53.548;9.964;2022-12-18T11:13:09;-2.10;99.90
28614;DHT22;15806;53.548;9.964;2022-12-18T11:14:53;-1.70;1.00
28614;DHT22;15806;53.548;9.964;2022-12-18T11:16:37;-1.00;99.90
28614;DHT22;15806;53.548;9.964;2022-12-18T11:18:32;-1.00;9.40
28614;DHT22;15806;53.548;9.964;2022-12-18T11:20:21;-0.70;99.90
28614;DHT22;15806;53.548;9.964;2022-12-18T11:22:17;-0.80;99.90
28614;DHT22;15806;53.548;9.964;2022-12-18T11:23:58;-1.10;1.00
28614;DHT22;15806;53.548;9.964;2022-12-18T11:25:39;-1.40;1.00
28614;DHT22;15806;53.548;9.964;2022-12-18T11:27:19;-1.60;1.00
28614;DHT22;15806;53.548;9.964;2022-12-18T11:29:08;-1.60;60.10
28614;DHT22;15806;53.548;9.964;2022-12-18T11:30:49;-1.80;99.90